createdAt,value
2024-01-05T00:01:47.167Z,100366.88
2024-01-05T00:04:17.047Z,100360.78
2024-01-05T00:06:47.421Z,100366.00
2024-01-05T00:09:18.503Z,100364.25
2024-01-05T00:11:50.222Z,100359.06
2024-01-05T00:14:34.095Z,100344.34
2024-01-05T00:17:10.547Z,100355.56
2024-01-05T00:19:40.130Z,100338.28
2024-01-05T00:22:10.776Z,100344.38
2024-01-05T00:24:41.693Z,100335.72
2024-01-05T00:27:16.322Z,100335.72
2024-01-05T00:29:49.642Z,100336.56
2024-01-05T00:32:23.527Z,100329.63
2024-01-05T00:34:53.491Z,100315.78
2024-01-05T00:37:23.387Z,100308.84
2024-01-05T00:39:54.955Z,100310.59
2024-01-05T00:42:24.809Z,100305.41
2024-01-05T00:45:05.953Z,100300.22
2024-01-05T00:47:36.359Z,100291.59
2024-01-05T00:50:11.894Z,100288.09
2024-01-05T00:52:41.883Z,100290.63
2024-01-05T00:55:12.379Z,100294.94
2024-01-05T00:57:42.007Z,100287.19
2024-01-05T01:00:15.128Z,100282.94
2024-01-05T01:02:45.210Z,100273.41
2024-01-05T01:05:15.518Z,100271.66
2024-01-05T01:07:45.160Z,100282.03
2024-01-05T01:10:14.855Z,100271.66
2024-01-05T01:12:47.148Z,100270.78
2024-01-05T01:15:19.461Z,100263.88
2024-01-05T01:17:50.969Z,100263.88
2024-01-05T01:20:20.480Z,100257.81
2024-01-05T01:22:51.257Z,100255.25
2024-01-05T01:25:36.981Z,100259.59
2024-01-05T01:28:14.824Z,100250.91
2024-01-05T01:30:48.956Z,100246.63
2024-01-05T01:33:27.303Z,100244.88
2024-01-05T01:35:57.713Z,100238.81
2024-01-05T01:38:30.529Z,100246.63
2024-01-05T01:41:05.757Z,100238.81
2024-01-05T01:43:35.980Z,100230.16
2024-01-05T01:46:08.325Z,100225.00
2024-01-05T01:48:38.172Z,100217.25
2024-01-05T01:51:09.216Z,100211.25
2024-01-05T01:53:46.481Z,100219.88
2024-01-05T01:56:16.920Z,100213.84
2024-01-05T01:58:47.176Z,100209.47
2024-01-05T02:01:26.871Z,100202.56
2024-01-05T02:03:56.198Z,100200.84
2024-01-05T02:06:34.777Z,100185.31
2024-01-05T02:09:05.853Z,100188.69
2024-01-05T02:11:36.330Z,100182.66
2024-01-05T02:14:06.431Z,100177.47
2024-01-05T02:16:38.149Z,100172.34
2024-01-05T02:19:08.480Z,100168.88
2024-01-05T02:21:45.514Z,100166.28
2024-01-05T02:24:17.338Z,100163.69
2024-01-05T02:26:48.165Z,100155.88
2024-01-05T02:29:23.856Z,100145.47
2024-01-05T02:31:53.603Z,100135.09
2024-01-05T02:34:30.012Z,100129.81
2024-01-05T02:37:01.469Z,100125.47
2024-01-05T02:39:34.820Z,100124.59
2024-01-05T02:42:04.842Z,100120.25
2024-01-05T02:44:38.861Z,100113.28
2024-01-05T02:47:12.057Z,100106.31
2024-01-05T02:49:41.901Z,100107.16
2024-01-05T02:52:12.195Z,100104.53
2024-01-05T02:54:45.604Z,100101.91
2024-01-05T02:57:15.190Z,100111.41
2024-01-05T02:59:52.185Z,100104.47
2024-01-05T03:02:22.067Z,100113.09
2024-01-05T03:04:53.202Z,100111.34
2024-01-05T03:07:25.139Z,100101.88
2024-01-05T03:09:56.254Z,100092.41
2024-01-05T03:12:29.380Z,100087.22
2024-01-05T03:14:58.750Z,100081.22
2024-01-05T03:17:30.876Z,100073.41
2024-01-05T03:20:01.127Z,100070.78
2024-01-05T03:22:32.375Z,100058.66
2024-01-05T03:25:07.093Z,100056.06
2024-01-05T03:27:38.146Z,100052.59
2024-01-05T03:30:10.346Z,100049.97
2024-01-05T03:32:40.653Z,100049.06
2024-01-05T03:35:11.174Z,100048.16
2024-01-05T03:37:41.227Z,100040.44
2024-01-05T03:40:15.406Z,100041.28
2024-01-05T03:42:45.445Z,100029.19
2024-01-05T03:45:15.657Z,100025.75
2024-01-05T03:47:45.848Z,100024.03
2024-01-05T03:50:16.022Z,100014.47
2024-01-05T03:52:45.989Z,100007.63
2024-01-05T03:55:20.363Z,99999.84
2024-01-05T03:57:50.661Z,99995.56
2024-01-05T04:00:26.550Z,99994.69
2024-01-05T04:03:09.960Z,99997.28
2024-01-05T04:05:43.119Z,100002.47
2024-01-05T04:08:13.094Z,99986.94
2024-01-05T04:10:50.605Z,99986.94
2024-01-05T04:13:20.653Z,99983.47
2024-01-05T04:15:50.716Z,99976.56
2024-01-05T04:18:20.678Z,99987.78
2024-01-05T04:20:50.665Z,99978.25
2024-01-05T04:23:19.990Z,99973.03
2024-01-05T04:25:52.698Z,99970.47
2024-01-05T04:28:27.787Z,99966.19
2024-01-05T04:30:58.600Z,99964.50
2024-01-05T04:33:28.992Z,99954.13
2024-01-05T04:35:58.765Z,99947.25
2024-01-05T04:38:32.773Z,99945.50
2024-01-05T04:41:04.281Z,99942.06
2024-01-05T04:43:34.965Z,99943.75
2024-01-05T04:46:07.645Z,99944.63
2024-01-05T04:48:42.739Z,99945.47
2024-01-05T04:51:12.797Z,99935.09
2024-01-05T04:53:42.393Z,99935.97
2024-01-05T04:56:13.915Z,99932.50
2024-01-05T04:58:44.646Z,99924.75
2024-01-05T05:01:20.744Z,99928.19
2024-01-05T05:03:51.843Z,99922.16
2024-01-05T05:06:22.544Z,99928.22
2024-01-05T05:09:03.810Z,99924.78
2024-01-05T05:11:36.143Z,99914.47
2024-01-05T05:14:06.151Z,99905.84
2024-01-05T05:16:38.298Z,99909.31
2024-01-05T05:19:07.877Z,99908.50
2024-01-05T05:21:39.593Z,99904.16
2024-01-05T05:24:09.016Z,99902.44
2024-01-05T05:26:41.283Z,99898.19
2024-01-05T05:29:10.749Z,99898.19
2024-01-05T05:31:41.034Z,99904.28
2024-01-05T05:34:12.263Z,99901.69
2024-01-05T05:36:41.087Z,99899.09
2024-01-05T05:39:11.088Z,99900.84
2024-01-05T05:41:42.890Z,99900.84
2024-01-05T05:44:12.491Z,99903.44
2024-01-05T05:46:41.143Z,99902.59
2024-01-05T05:49:11.689Z,99891.41
2024-01-05T05:51:42.667Z,99891.44
2024-01-05T05:54:13.467Z,99890.53
2024-01-05T05:56:44.424Z,99892.28
2024-01-05T05:59:21.841Z,99890.59
2024-01-05T06:01:52.842Z,99881.09
2024-01-05T06:04:26.628Z,99886.28
2024-01-05T06:06:59.072Z,99888.03
2024-01-05T06:09:30.928Z,99878.56
2024-01-05T06:12:06.589Z,99874.25
2024-01-05T06:14:39.526Z,99881.19
2024-01-05T06:17:09.381Z,99869.97
2024-01-05T06:19:47.445Z,99876.06
2024-01-05T06:22:17.213Z,99878.66
2024-01-05T06:24:48.144Z,99889.91
2024-01-05T06:27:32.668Z,99885.59
2024-01-05T06:30:06.493Z,99884.72
2024-01-05T06:32:35.437Z,99883.00
2024-01-05T06:35:05.615Z,99880.44
2024-01-05T06:37:35.703Z,99880.44
2024-01-05T06:40:09.642Z,99887.31
2024-01-05T06:42:41.879Z,99886.47
2024-01-05T06:45:12.543Z,99878.69
2024-01-05T06:47:42.472Z,99872.66
2024-01-05T06:50:13.628Z,99868.34
2024-01-05T06:52:44.392Z,99866.63
2024-01-05T06:55:15.453Z,99863.16
2024-01-05T06:57:53.077Z,99867.53
2024-01-05T07:00:24.563Z,99868.38
2024-01-05T07:02:53.819Z,99865.78
2024-01-05T07:05:29.917Z,99864.94
2024-01-05T07:08:01.471Z,99874.47
2024-01-05T07:10:31.605Z,99873.66
2024-01-05T07:13:03.689Z,99853.75
2024-01-05T07:15:34.265Z,99862.41
2024-01-05T07:18:09.917Z,99858.13
2024-01-05T07:20:41.138Z,99864.19
2024-01-05T07:23:12.465Z,99857.31
2024-01-05T07:28:27.159Z,99847.78
2024-01-05T07:30:58.699Z,99856.41
2024-01-05T07:33:28.157Z,99852.94
2024-01-05T07:35:59.711Z,99848.63
2024-01-05T07:38:29.949Z,99848.63
2024-01-05T07:41:01.441Z,99840.88
2024-01-05T07:43:34.327Z,99844.31
2024-01-05T07:46:05.979Z,99846.97
2024-01-05T07:48:34.980Z,99842.66
2024-01-05T07:51:06.870Z,99838.31
2024-01-05T07:53:36.605Z,99836.59
2024-01-05T07:56:07.604Z,99835.75
2024-01-05T07:58:38.407Z,99834.06
2024-01-05T08:01:08.725Z,99836.66
2024-01-05T08:03:40.805Z,99840.19
2024-01-05T08:06:11.172Z,99835.88
2024-01-05T08:08:52.058Z,99830.69
2024-01-05T08:11:25.744Z,99828.97
2024-01-05T08:14:00.474Z,99822.94
2024-01-05T08:16:29.891Z,99829.06
2024-01-05T08:18:59.746Z,99825.59
2024-01-05T08:21:30.451Z,99820.44
2024-01-05T08:24:01.983Z,99817.84
2024-01-05T08:26:32.588Z,99807.50
2024-01-05T08:29:06.128Z,99804.06
2024-01-05T08:31:38.196Z,99809.28
2024-01-05T08:34:10.481Z,99812.78
2024-01-05T08:36:55.162Z,99805.00
2024-01-05T08:39:27.845Z,99799.84
2024-01-05T08:41:59.107Z,99788.59
2024-01-05T08:44:30.927Z,99790.38
2024-01-05T08:47:06.579Z,99790.41
2024-01-05T08:49:39.105Z,99775.69
2024-01-05T08:52:13.395Z,99780.00
2024-01-05T08:54:45.836Z,99786.94
2024-01-05T08:57:16.700Z,99786.09
2024-01-05T08:59:54.223Z,99793.03
2024-01-05T09:02:25.695Z,99781.78
2024-01-05T09:05:04.336Z,99785.28
2024-01-05T09:07:39.120Z,99791.31
2024-01-05T09:10:13.320Z,99787.03
2024-01-05T09:12:44.334Z,99794.78
2024-01-05T09:15:18.380Z,99793.09
2024-01-05T09:17:48.774Z,99798.31
2024-01-05T09:20:18.275Z,99798.31
2024-01-05T09:22:50.938Z,99790.53
2024-01-05T09:25:21.521Z,99786.22
2024-01-05T09:27:53.094Z,99786.25
2024-01-05T09:30:25.463Z,99788.00
2024-01-05T09:33:02.262Z,99790.59
2024-01-05T09:35:32.489Z,99792.34
2024-01-05T09:38:03.684Z,99792.34
2024-01-05T09:40:33.766Z,99798.41
2024-01-05T09:43:04.722Z,99800.16
2024-01-05T09:45:38.681Z,99799.31
2024-01-05T09:48:13.435Z,99806.22
2024-01-05T09:50:45.550Z,99805.34
2024-01-05T09:53:15.937Z,99813.16
2024-01-05T09:55:51.848Z,99813.16
2024-01-05T09:58:22.553Z,99805.38
2024-01-05T10:00:56.659Z,99804.50
2024-01-05T10:03:27.401Z,99805.41
2024-01-05T10:05:57.913Z,99808.88
2024-01-05T10:08:28.456Z,99809.75
2024-01-05T10:11:00.112Z,99806.25
2024-01-05T10:13:30.493Z,99808.84
2024-01-05T10:16:04.166Z,99804.53
2024-01-05T10:18:37.943Z,99795.91
2024-01-05T10:21:21.050Z,99795.06
2024-01-05T10:23:52.296Z,99799.41
2024-01-05T10:26:21.504Z,99799.41
2024-01-05T10:28:50.917Z,99790.78
2024-01-05T10:31:21.123Z,99787.31
2024-01-05T10:33:51.615Z,99786.47
2024-01-05T10:36:24.156Z,99777.81
2024-01-05T10:38:53.747Z,99784.75
2024-01-05T10:41:23.343Z,99769.16
2024-01-05T10:43:55.072Z,99776.97
2024-01-05T10:46:26.516Z,99772.66
2024-01-05T10:48:56.681Z,99774.41
2024-01-05T10:51:25.902Z,99769.22
2024-01-05T10:53:55.026Z,99771.81
2024-01-05T10:56:24.637Z,99780.47
2024-01-05T10:58:53.936Z,99780.50
2024-01-05T11:01:24.250Z,99777.06
2024-01-05T11:03:55.086Z,99772.75
2024-01-05T11:06:24.120Z,99772.78
2024-01-05T11:09:11.015Z,99775.38
2024-01-05T11:11:54.754Z,99765.88
2024-01-05T11:14:41.831Z,99764.09
2024-01-05T11:17:49.178Z,99763.25
2024-01-05T11:20:39.729Z,99765.00
2024-01-05T11:23:10.963Z,99765.00
2024-01-05T11:25:39.910Z,99758.94
2024-01-05T11:28:08.694Z,99751.16
2024-01-05T11:30:42.341Z,99740.75
2024-01-05T11:33:46.929Z,99739.88
2024-01-05T11:36:56.449Z,99742.47
2024-01-05T11:39:45.313Z,99756.38
2024-01-05T11:42:34.994Z,99746.81
2024-01-05T11:45:06.458Z,99758.09
2024-01-05T11:47:41.624Z,99742.50
2024-01-05T11:50:41.714Z,99739.03
2024-01-05T11:53:15.349Z,99730.34
2024-01-05T11:55:51.633Z,99728.59
2024-01-05T11:58:22.139Z,99725.16
2024-01-05T12:00:53.063Z,99720.81
2024-01-05T12:03:24.416Z,99726.88
2024-01-05T12:05:57.868Z,99723.41
2024-01-05T12:08:27.154Z,99730.38
2024-01-05T12:10:57.148Z,99724.28
2024-01-05T12:13:28.849Z,99739.03
2024-01-05T12:16:01.874Z,99739.91
2024-01-05T12:18:38.338Z,99748.56
2024-01-05T12:21:11.373Z,99749.47
2024-01-05T12:23:42.344Z,99730.38
2024-01-05T12:26:12.057Z,99738.16
2024-01-05T12:28:42.865Z,99732.97
2024-01-05T12:31:13.054Z,99732.09
2024-01-05T12:33:43.259Z,99737.31
2024-01-05T12:36:25.564Z,99732.94
2024-01-05T12:38:54.084Z,99732.94
2024-01-05T12:41:24.127Z,99728.63
2024-01-05T12:43:53.283Z,99726.88
2024-01-05T12:46:24.771Z,99730.34
2024-01-05T12:48:53.831Z,99724.28
2024-01-05T12:51:24.477Z,99726.00
2024-01-05T12:54:05.020Z,99725.16
2024-01-05T12:56:34.237Z,99721.69
2024-01-05T12:59:04.798Z,99726.91
2024-01-05T13:01:33.739Z,99726.91
2024-01-05T13:04:03.359Z,99726.00
2024-01-05T13:06:33.823Z,99724.28
2024-01-05T13:09:03.177Z,99718.22
2024-01-05T13:11:31.828Z,99717.34
2024-01-05T13:14:01.103Z,99730.34
2024-01-05T13:16:31.779Z,99719.06
2024-01-05T13:19:01.361Z,99721.69
2024-01-05T13:21:32.351Z,99714.75
2024-01-05T13:24:03.439Z,99718.22
2024-01-05T13:26:32.209Z,99720.81
2024-01-05T13:29:01.216Z,99722.53
2024-01-05T13:34:00.083Z,99724.25
2024-01-05T13:36:28.910Z,99729.47
2024-01-05T13:38:57.989Z,99722.53
2024-01-05T13:41:27.995Z,99731.22
2024-01-05T13:43:56.850Z,99726.00
2024-01-05T13:46:26.404Z,99726.00
2024-01-05T13:48:55.385Z,99727.72
2024-01-05T13:51:24.797Z,99727.72
2024-01-05T13:53:54.607Z,99729.47
2024-01-05T13:56:23.402Z,99731.22
2024-01-05T13:58:56.672Z,99732.94
2024-01-05T14:01:25.426Z,99727.72
2024-01-05T14:03:54.387Z,99728.59
2024-01-05T14:06:23.395Z,99740.75
2024-01-05T14:08:52.161Z,99739.91
2024-01-05T14:11:21.445Z,99738.16
2024-01-05T14:13:52.280Z,99736.44
2024-01-05T14:16:22.818Z,99743.38
2024-01-05T14:18:51.990Z,99739.91
2024-01-05T14:21:27.687Z,99748.59
2024-01-05T14:23:56.534Z,99748.59
2024-01-05T14:26:27.312Z,99756.41
2024-01-05T14:28:56.170Z,99754.69
2024-01-05T14:31:30.730Z,99759.03
2024-01-05T14:34:00.290Z,99758.16
2024-01-05T14:36:29.050Z,99752.97
2024-01-05T14:38:57.885Z,99752.97
2024-01-05T14:41:29.204Z,99753.84
2024-01-05T14:43:58.428Z,99759.06
2024-01-05T14:46:30.479Z,99754.69
2024-01-05T14:48:59.601Z,99754.72
2024-01-05T14:51:28.381Z,99757.31
2024-01-05T14:53:57.038Z,99757.31
2024-01-05T14:56:25.807Z,99760.81
2024-01-05T14:58:54.559Z,99756.47
2024-01-05T15:01:23.356Z,99765.13
2024-01-05T15:03:53.638Z,99761.66
2024-01-05T15:06:24.975Z,99758.19
2024-01-05T15:08:53.578Z,99765.13
2024-01-05T15:11:22.568Z,99765.13
2024-01-05T15:13:51.446Z,99775.56
2024-01-05T15:16:21.046Z,99770.34
2024-01-05T15:18:50.016Z,99766.00
2024-01-05T15:21:26.856Z,99772.94
2024-01-05T15:23:55.695Z,99778.16
2024-01-05T15:26:24.542Z,99790.28
2024-01-05T15:28:53.195Z,99784.22
2024-01-05T15:31:22.690Z,99787.66
2024-01-05T15:33:54.301Z,99780.69
2024-01-05T15:36:26.222Z,99797.13
2024-01-05T15:38:55.183Z,99796.25
2024-01-05T15:41:25.100Z,99803.19
2024-01-05T15:43:57.196Z,99801.41
2024-01-05T15:46:28.395Z,99803.97
2024-01-05T15:48:59.198Z,99808.28
2024-01-05T15:51:31.297Z,99805.66
2024-01-05T15:54:01.480Z,99812.59
2024-01-05T15:56:30.541Z,99810.84
2024-01-05T15:58:58.996Z,99811.66
2024-01-05T16:01:27.837Z,99814.22
2024-01-05T16:03:56.818Z,99815.09
2024-01-05T16:06:25.912Z,99810.75
2024-01-05T16:08:56.227Z,99826.34
2024-01-05T16:11:31.127Z,99824.59
2024-01-05T16:14:00.022Z,99811.56
2024-01-05T16:16:30.538Z,99822.84
2024-01-05T16:19:01.961Z,99818.50
2024-01-05T16:21:32.620Z,99828.00
2024-01-05T16:24:04.777Z,99826.25
2024-01-05T16:26:33.817Z,99831.47
2024-01-05T16:29:02.562Z,99837.50
2024-01-05T16:31:31.468Z,99835.78
2024-01-05T16:34:00.697Z,99830.53
2024-01-05T16:36:29.765Z,99836.63
2024-01-05T16:38:58.576Z,99839.25
2024-01-05T16:41:29.380Z,99845.31
2024-01-05T16:43:59.887Z,99849.66
2024-01-05T16:46:31.141Z,99849.66
2024-01-05T16:48:59.849Z,99839.25
2024-01-05T16:51:31.533Z,99843.59
2024-01-05T16:54:01.169Z,99849.66
2024-01-05T16:56:33.989Z,99852.25
2024-01-05T16:59:03.228Z,99854.84
2024-01-05T17:01:34.566Z,99863.50
2024-01-05T17:04:08.121Z,99855.69
2024-01-05T17:06:38.450Z,99857.41
2024-01-05T17:09:07.643Z,99860.00
2024-01-05T17:11:37.643Z,99862.56
2024-01-05T17:14:06.132Z,99866.91
2024-01-05T17:16:34.710Z,99874.69
2024-01-05T17:19:03.342Z,99876.41
2024-01-05T17:21:32.522Z,99890.25
2024-01-05T17:24:01.228Z,99884.19
2024-01-05T17:26:31.256Z,99887.66
2024-01-05T17:29:04.411Z,99885.03
2024-01-05T17:31:34.332Z,99899.75
2024-01-05T17:34:03.261Z,99903.19
2024-01-05T17:36:32.098Z,99894.50
2024-01-05T17:39:02.404Z,99907.47
2024-01-05T17:41:31.172Z,99909.22
2024-01-05T17:44:01.813Z,99908.34
2024-01-05T17:46:30.452Z,99912.66
2024-01-05T17:49:00.042Z,99916.97
2024-01-05T17:51:33.659Z,99919.59
2024-01-05T17:54:02.437Z,99924.75
2024-01-05T17:56:34.410Z,99926.47
2024-01-05T17:59:05.082Z,99932.53
2024-01-05T18:01:34.580Z,99927.31
2024-01-05T18:04:03.237Z,99928.16
2024-01-05T18:06:31.803Z,99936.84
2024-01-05T18:09:01.618Z,99936.84
2024-01-05T18:11:30.132Z,99942.88
2024-01-05T18:13:59.946Z,99941.16
2024-01-05T18:16:36.697Z,99942.84
2024-01-05T18:19:06.054Z,99952.34
2024-01-05T18:21:34.662Z,99947.13
2024-01-05T18:24:05.269Z,99951.44
2024-01-05T18:26:36.993Z,99954.00
2024-01-05T18:29:17.120Z,99956.59
2024-01-05T18:31:54.930Z,99963.47
2024-01-05T18:34:24.938Z,99958.25
2024-01-05T18:36:54.603Z,99965.97
2024-01-05T18:39:23.417Z,99969.44
2024-01-05T18:41:51.987Z,99969.41
2024-01-05T18:44:20.758Z,99978.94
2024-01-05T18:46:51.467Z,99978.91
2024-01-05T18:49:24.730Z,99978.03
2024-01-05T18:51:54.540Z,99980.59
2024-01-05T18:54:23.275Z,99980.56
2024-01-05T18:56:52.456Z,99984.84
2024-01-05T18:59:21.264Z,99988.28
2024-01-05T19:01:50.305Z,99994.28
2024-01-05T19:04:19.157Z,99996.84
2024-01-05T19:06:49.332Z,100004.59
2024-01-05T19:09:18.379Z,100006.31
2024-01-05T19:11:46.787Z,100004.53
2024-01-05T19:14:15.657Z,100012.25
2024-01-05T19:16:44.859Z,100015.66
2024-01-05T19:19:16.900Z,100019.13
2024-01-05T19:21:55.866Z,100027.75
2024-01-05T19:24:27.014Z,100032.00
2024-01-05T19:26:55.793Z,100038.88
2024-01-05T19:29:25.509Z,100042.34
2024-01-05T19:31:54.243Z,100047.53
2024-01-05T19:34:22.994Z,100051.88
2024-01-05T19:36:54.013Z,100052.75
2024-01-05T19:39:23.008Z,100051.88
2024-01-05T19:41:51.673Z,100055.31
2024-01-05T19:44:21.863Z,100053.56
2024-01-05T19:46:51.398Z,100056.09
2024-01-05T19:49:20.693Z,100068.19
2024-01-05T19:51:50.675Z,100067.28
2024-01-05T19:54:21.175Z,100065.47
2024-01-05T19:56:50.279Z,100069.84
2024-01-05T19:59:20.950Z,100076.75
2024-01-05T20:01:50.120Z,100090.59
2024-01-05T20:04:19.966Z,100084.50
2024-01-05T20:06:50.524Z,100092.25
2024-01-05T20:09:21.168Z,100087.03
2024-01-05T20:11:50.480Z,100098.22
2024-01-05T20:14:20.467Z,100099.09
2024-01-05T20:16:49.291Z,100098.22
2024-01-05T20:19:18.351Z,100106.84
2024-01-05T20:21:49.502Z,100109.34
2024-01-05T20:24:22.438Z,100124.88
2024-01-05T20:26:54.700Z,100111.91
2024-01-05T20:29:23.316Z,100132.66
2024-01-05T20:31:54.383Z,100125.69
2024-01-05T20:34:26.640Z,100131.72
2024-01-05T20:36:55.600Z,100137.69
2024-01-05T20:39:26.688Z,100135.94
2024-01-05T20:41:55.486Z,100144.50
2024-01-05T20:44:25.418Z,100139.28
2024-01-05T20:46:54.265Z,100148.72
2024-01-05T20:49:22.851Z,100147.84
2024-01-05T20:51:51.766Z,100152.16
2024-01-05T20:54:20.831Z,100161.72
2024-01-05T20:56:51.952Z,100162.53
2024-01-05T20:59:20.642Z,100168.50
2024-01-05T21:01:50.203Z,100168.41
2024-01-05T21:04:19.796Z,100175.28
2024-01-05T21:06:49.356Z,100180.41
2024-01-05T21:09:18.198Z,100178.69
2024-01-05T21:11:48.195Z,100183.84
2024-01-05T21:14:18.201Z,100192.47
2024-01-05T21:16:48.106Z,100197.66
2024-01-05T21:19:18.057Z,100195.88
2024-01-05T21:21:48.605Z,100199.38
2024-01-05T21:24:18.096Z,100192.44
2024-01-05T21:26:47.227Z,100190.66
2024-01-05T21:29:17.301Z,100188.91
2024-01-05T21:31:51.206Z,100197.53
2024-01-05T21:34:20.908Z,100196.66
2024-01-05T21:36:50.637Z,100205.28
2024-01-05T21:39:19.387Z,100204.34
2024-01-05T21:41:49.436Z,100199.16
2024-01-05T21:44:20.102Z,100206.06
2024-01-05T21:46:49.134Z,100208.66
2024-01-05T21:49:17.764Z,100212.13
2024-01-05T21:51:49.714Z,100206.06
2024-01-05T21:54:18.530Z,100212.94
2024-01-05T21:56:47.413Z,100216.31
2024-01-05T21:59:16.617Z,100223.25
2024-01-05T22:01:49.541Z,100232.75
2024-01-05T22:04:18.295Z,100231.94
2024-01-05T22:06:47.123Z,100231.06
2024-01-05T22:09:17.482Z,100238.84
2024-01-05T22:11:46.716Z,100242.28
2024-01-05T22:14:16.932Z,100248.38
2024-01-05T22:16:45.993Z,100249.22
2024-01-05T22:19:16.169Z,100249.22
2024-01-05T22:21:45.054Z,100253.53
2024-01-05T22:24:16.826Z,100268.22
2024-01-05T22:26:45.307Z,100267.34
2024-01-05T22:29:15.803Z,100275.97
2024-01-05T22:31:47.281Z,100276.84
2024-01-05T22:34:18.166Z,100279.44
2024-01-05T22:36:47.111Z,100291.56
2024-01-05T22:39:16.132Z,100288.91
2024-01-05T22:41:45.639Z,100295.78
2024-01-05T22:44:14.671Z,100297.47
2024-01-05T22:46:43.255Z,100312.13
2024-01-05T22:49:11.990Z,100306.06
2024-01-05T22:51:42.181Z,100306.00
2024-01-05T22:54:10.924Z,100312.00
2024-01-05T22:56:39.936Z,100320.59
2024-01-05T22:59:08.629Z,100335.34
2024-01-05T23:01:37.335Z,100330.06
2024-01-05T23:04:06.761Z,100333.44
2024-01-05T23:06:35.634Z,100333.38
2024-01-05T23:09:05.994Z,100338.50
2024-01-05T23:11:34.684Z,100347.94
2024-01-05T23:14:03.382Z,100356.56
2024-01-05T23:16:31.864Z,100355.72
2024-01-05T23:19:00.931Z,100354.84
2024-01-05T23:21:30.077Z,100366.94
2024-01-05T23:23:58.754Z,100353.16
2024-01-05T23:26:28.873Z,100367.75
2024-01-05T23:28:57.757Z,100363.38
2024-01-05T23:31:26.368Z,100370.28
2024-01-05T23:34:04.846Z,100370.28
2024-01-05T23:36:41.600Z,100377.22
2024-01-05T23:39:11.300Z,100379.81
2024-01-05T23:41:42.528Z,100375.44
2024-01-05T23:44:11.823Z,100380.63
2024-01-05T23:46:40.276Z,100379.72
2024-01-05T23:49:08.951Z,100386.56
2024-01-05T23:51:37.558Z,100396.06
2024-01-05T23:54:06.540Z,100391.69
2024-01-05T23:56:35.402Z,100388.13
2024-01-05T23:59:05.625Z,100390.66
